Time;durP1;ratioP1;P1;durP2;ratioP2;P2;SDS_P1;SDS_P2;PMS_P1;PMS_P2;Temp;Humidity;BMP_temperature;BMP_pressure;BME280_temperature;BME280_humidity;BME280_pressure;Samples;Min_cycle;Max_cycle;Signal;HPM_P1;HPM_P2
2022/01/31 00:02:11;;;;;;;13.73;5.65;;;1.30;99.60;;;;;;5023069;28;20732;-83
2022/01/31 00:04:38;;;;;;;12.63;6.13;;;1.10;99.40;;;;;;5028773;28;20205;-83
2022/01/31 00:07:07;;;;;;;8.63;5.30;;;1.10;99.60;;;;;;5029177;28;20235;-83
2022/01/31 00:09:33;;;;;;;12.70;5.60;;;1.10;99.40;;;;;;5028626;28;20689;-83
2022/01/31 00:12:04;;;;;;;7.53;4.80;;;1.00;99.40;;;;;;5029654;28;20192;-83
2022/01/31 00:14:38;;;;;;;14.27;5.78;;;1.00;99.40;;;;;;5028975;28;20208;-83
2022/01/31 00:17:07;;;;;;;5.82;5.05;;;1.10;99.30;;;;;;5029135;28;20204;-83
2022/01/31 00:19:34;;;;;;;8.70;4.85;;;0.70;99.90;;;;;;5029474;28;20204;-83
2022/01/31 00:22:01;;;;;;;8.13;5.45;;;0.90;99.90;;;;;;5028094;28;20204;-83
2022/01/31 00:24:29;;;;;;;6.55;4.50;;;1.10;99.80;;;;;;5028456;28;20204;-83
2022/01/31 00:26:56;;;;;;;11.20;5.10;;;1.10;99.70;;;;;;5029088;28;20682;-83
2022/01/31 00:29:23;;;;;;;9.02;4.25;;;1.10;99.70;;;;;;5028586;28;20253;-83
2022/01/31 00:31:50;;;;;;;9.10;5.15;;;1.10;99.80;;;;;;5029068;28;20271;-83
2022/01/31 00:34:17;;;;;;;10.32;5.55;;;1.10;99.60;;;;;;5028159;28;20197;-83
2022/01/31 00:36:45;;;;;;;11.13;6.63;;;1.20;99.70;;;;;;5028329;28;20274;-83
2022/01/31 00:39:12;;;;;;;12.10;6.13;;;1.30;99.60;;;;;;5023565;28;20922;-83
2022/01/31 00:41:41;;;;;;;7.00;5.35;;;1.30;99.70;;;;;;5028805;28;20209;-83
2022/01/31 00:44:18;;;;;;;7.10;5.07;;;1.30;99.80;;;;;;5028292;28;20863;-83
2022/01/31 00:46:51;;;;;;;7.53;4.70;;;1.10;99.90;;;;;;5028157;28;20562;-82
2022/01/31 00:49:27;;;;;;;9.88;5.82;;;1.30;99.90;;;;;;5028258;28;20216;-83
2022/01/31 00:51:55;;;;;;;6.55;4.70;;;1.20;99.90;;;;;;5028373;28;20625;-83
2022/01/31 00:54:22;;;;;;;11.23;5.35;;;1.80;99.90;;;;;;5028021;28;20212;-83
2022/01/31 00:56:51;;;;;;;7.93;5.55;;;1.50;99.90;;;;;;5028264;28;20662;-83
2022/01/31 00:59:18;;;;;;;8.95;4.97;;;1.40;99.90;;;;;;5027829;28;20251;-83
2022/01/31 01:01:47;;;;;;;18.20;5.45;;;1.40;99.90;;;;;;5023528;28;20190;-82
2022/01/31 01:04:14;;;;;;;10.80;4.65;;;1.80;99.90;;;;;;5019345;28;20207;-83
2022/01/31 01:06:42;;;;;;;10.27;5.50;;;1.40;99.90;;;;;;5028259;28;20196;-83
2022/01/31 01:09:12;;;;;;;9.25;5.93;;;1.50;99.90;;;;;;5028613;28;20282;-83
2022/01/31 01:11:40;;;;;;;9.57;5.72;;;2.00;99.90;;;;;;5016615;28;20196;-82
2022/01/31 01:14:09;;;;;;;11.68;6.75;;;1.60;99.90;;;;;;5027345;28;20200;-83
2022/01/31 01:16:38;;;;;;;11.07;5.28;;;1.70;99.90;;;;;;5028394;28;20284;-82
2022/01/31 01:19:06;;;;;;;9.65;6.05;;;1.70;99.90;;;;;;5028832;28;20196;-83
2022/01/31 01:21:34;;;;;;;6.05;5.13;;;2.00;99.90;;;;;;5027997;28;20283;-82
2022/01/31 01:24:02;;;;;;;8.82;5.22;;;1.90;99.90;;;;;;5027438;28;20541;-83
2022/01/31 01:26:33;;;;;;;6.53;4.60;;;1.80;99.80;;;;;;5027978;28;20351;-82
2022/01/31 01:29:01;;;;;;;11.80;5.70;;;1.90;99.80;;;;;;5028045;28;20232;-82
2022/01/31 01:31:30;;;;;;;7.00;4.40;;;1.90;99.90;;;;;;5028236;28;20288;-83
2022/01/31 01:33:57;;;;;;;6.35;5.28;;;1.80;99.80;;;;;;5022476;28;20225;-83
2022/01/31 01:36:24;;;;;;;9.43;5.22;;;2.00;99.90;;;;;;5027920;28;20276;-83
2022/01/31 01:38:51;;;;;;;14.02;5.05;;;2.40;99.90;;;;;;5027868;28;20193;-83
2022/01/31 01:41:18;;;;;;;10.40;5.15;;;1.90;99.90;;;;;;5027438;28;20581;-83
2022/01/31 01:43:48;;;;;;;13.68;5.20;;;2.00;99.90;;;;;;5027432;28;20223;-83
2022/01/31 01:46:14;;;;;;;10.50;4.78;;;2.00;99.80;;;;;;5027473;28;20196;-82
2022/01/31 01:48:44;;;;;;;11.70;5.53;;;2.00;99.70;;;;;;5027693;28;20197;-82
2022/01/31 01:51:11;;;;;;;7.78;5.13;;;2.00;99.80;;;;;;5028034;28;20207;-83
2022/01/31 01:53:40;;;;;;;8.65;4.85;;;2.00;99.90;;;;;;5027282;28;20193;-83
2022/01/31 01:56:07;;;;;;;7.30;4.28;;;2.00;99.80;;;;;;5027265;28;20659;-83
2022/01/31 01:58:40;;;;;;;14.27;4.90;;;2.10;99.70;;;;;;5027936;28;20262;-82
2022/01/31 02:01:07;;;;;;;6.10;4.50;;;1.90;99.80;;;;;;5021223;28;20199;-83
2022/01/31 02:03:37;;;;;;;6.70;4.85;;;2.10;99.60;;;;;;5024505;28;20681;-83
2022/01/31 02:06:06;;;;;;;15.55;4.30;;;2.20;99.70;;;;;;5031260;28;20243;-83
2022/01/31 02:08:40;;;;;;;8.88;4.75;;;2.20;99.60;;;;;;5031185;28;20201;-83
2022/01/31 02:11:08;;;;;;;6.70;4.70;;;2.20;99.60;;;;;;5031528;28;20220;-83
2022/01/31 02:13:36;;;;;;;11.73;5.07;;;2.20;99.70;;;;;;5031790;28;20235;-83
2022/01/31 02:16:06;;;;;;;8.13;4.30;;;2.20;99.40;;;;;;5030903;28;20196;-83
2022/01/31 02:18:33;;;;;;;10.27;5.20;;;2.20;99.50;;;;;;5031759;28;20212;-83
2022/01/31 02:21:07;;;;;;;9.13;5.05;;;2.20;99.40;;;;;;5030923;28;20203;-83
2022/01/31 02:23:35;;;;;;;8.98;4.97;;;2.10;99.90;;;;;;5031380;28;20640;-83
2022/01/31 02:26:05;;;;;;;9.30;5.18;;;2.10;99.60;;;;;;5030448;28;20213;-83
2022/01/31 02:28:36;;;;;;;10.90;5.80;;;2.10;99.50;;;;;;5025703;28;20640;-83
2022/01/31 02:31:12;;;;;;;6.25;5.18;;;2.10;99.50;;;;;;5030904;28;20330;-83
2022/01/31 02:33:40;;;;;;;8.40;5.43;;;2.20;99.40;;;;;;5031237;28;20203;-83
2022/01/31 02:36:09;;;;;;;6.90;5.47;;;2.20;99.30;;;;;;5030697;28;20227;-83
2022/01/31 02:38:37;;;;;;;8.63;5.18;;;2.00;99.30;;;;;;5030987;28;20999;-82
2022/01/31 02:41:05;;;;;;;7.50;4.95;;;1.90;99.60;;;;;;5026458;28;20875;-83
2022/01/31 02:43:33;;;;;;;15.43;5.68;;;1.90;99.70;;;;;;5022054;28;20196;-83
2022/01/31 02:46:01;;;;;;;10.25;4.95;;;1.80;99.90;;;;;;5024203;28;20239;-83
2022/01/31 02:48:32;;;;;;;12.95;5.20;;;2.00;99.80;;;;;;5029968;28;20300;-83
2022/01/31 02:50:59;;;;;;;9.82;5.00;;;1.90;99.80;;;;;;5031139;28;20219;-83
2022/01/31 02:53:30;;;;;;;7.70;5.60;;;2.00;99.90;;;;;;5029594;28;20195;-82
2022/01/31 02:55:58;;;;;;;10.35;4.90;;;2.10;99.90;;;;;;5030478;28;20839;-82
2022/01/31 02:58:27;;;;;;;8.50;5.15;;;2.30;99.90;;;;;;5030372;28;20716;-83
2022/01/31 03:00:58;;;;;;;9.10;5.80;;;2.20;99.50;;;;;;5030903;28;20197;-83
2022/01/31 03:03:25;;;;;;;14.13;5.50;;;1.60;99.90;;;;;;5029846;28;20200;-83
2022/01/31 03:05:53;;;;;;;5.90;4.60;;;2.00;99.90;;;;;;5030499;28;20232;-83
2022/01/31 03:08:20;;;;;;;7.97;4.82;;;2.10;99.90;;;;;;5030220;28;20223;-83
2022/01/31 03:10:48;;;;;;;11.23;5.40;;;2.10;99.70;;;;;;5029838;28;20220;-83
2022/01/31 03:13:15;;;;;;;10.20;5.22;;;2.20;99.90;;;;;;5029928;28;20192;-83
2022/01/31 03:15:42;;;;;;;9.15;4.70;;;2.20;99.40;;;;;;5030058;28;20795;-83
2022/01/31 03:18:09;;;;;;;9.93;4.82;;;2.10;99.40;;;;;;5030321;28;20587;-83
2022/01/31 03:20:36;;;;;;;5.70;4.57;;;2.10;99.40;;;;;;5030123;28;20201;-85
2022/01/31 03:23:03;;;;;;;8.85;5.40;;;2.20;99.40;;;;;;5023757;28;20248;-83
2022/01/31 03:25:33;;;;;;;7.45;4.80;;;2.00;99.80;;;;;;5029239;28;20204;-83
2022/01/31 03:28:01;;;;;;;7.78;5.05;;;2.10;99.40;;;;;;5029386;28;20212;-83
2022/01/31 03:30:29;;;;;;;8.38;3.97;;;2.20;99.30;;;;;;5030169;28;20281;-83
2022/01/31 03:32:56;;;;;;;6.82;4.35;;;2.20;99.10;;;;;;5028624;28;20213;-83
2022/01/31 03:35:23;;;;;;;6.57;5.32;;;2.20;99.10;;;;;;5029257;28;20287;-83
2022/01/31 03:37:50;;;;;;;5.47;4.85;;;1.70;99.20;;;;;;5029086;28;20207;-83
2022/01/31 03:40:19;;;;;;;9.70;5.43;;;2.20;99.20;;;;;;5030005;28;20197;-82
2022/01/31 03:42:46;;;;;;;6.10;4.60;;;2.20;99.00;;;;;;5029546;28;20192;-83
2022/01/31 03:45:15;;;;;;;6.05;4.60;;;3.10;99.50;;;;;;5029519;28;20193;-83
2022/01/31 03:47:46;;;;;;;5.97;4.88;;;3.00;99.30;;;;;;5029738;28;20201;-83
2022/01/31 03:50:18;;;;;;;9.43;5.70;;;3.00;99.10;;;;;;5029542;28;20228;-83
2022/01/31 03:52:45;;;;;;;17.83;5.28;;;2.20;99.90;;;;;;5019065;28;20197;-83
2022/01/31 03:55:13;;;;;;;10.30;5.35;;;2.30;99.00;;;;;;5029867;28;20605;-83
2022/01/31 03:57:40;;;;;;;11.38;5.82;;;2.20;99.10;;;;;;5029428;28;20197;-83
2022/01/31 04:00:10;;;;;;;11.27;6.05;;;2.50;99.20;;;;;;5029496;28;20230;-83
2022/01/31 04:02:39;;;;;;;10.77;5.10;;;2.20;99.20;;;;;;5026262;28;20251;-83
2022/01/31 04:05:06;;;;;;;9.80;6.28;;;2.30;99.10;;;;;;5028266;28;20205;-83
2022/01/31 04:07:33;;;;;;;6.40;4.38;;;2.20;99.10;;;;;;5029251;28;20239;-83
2022/01/31 04:10:00;;;;;;;9.80;4.65;;;2.20;99.90;;;;;;5029264;28;20216;-83
2022/01/31 04:12:27;;;;;;;9.10;4.55;;;2.50;99.30;;;;;;5028953;28;20824;-83
2022/01/31 04:14:54;;;;;;;10.93;4.95;;;2.40;99.10;;;;;;5028713;28;20258;-83
2022/01/31 04:17:22;;;;;;;8.30;5.53;;;2.40;99.90;;;;;;5028561;28;20309;-83
2022/01/31 04:19:51;;;;;;;10.95;4.90;;;2.30;99.90;;;;;;5024720;28;20553;-83
2022/01/31 04:22:20;;;;;;;4.90;3.83;;;2.40;99.10;;;;;;5028339;28;20591;-83
2022/01/31 04:24:54;;;;;;;8.45;4.25;;;2.50;99.90;;;;;;5027466;28;20215;-83
2022/01/31 04:27:21;;;;;;;9.05;4.00;;;2.40;98.90;;;;;;5027374;28;20189;-83
2022/01/31 04:29:49;;;;;;;10.40;5.32;;;2.50;99.00;;;;;;5028723;28;20224;-83
2022/01/31 04:32:16;;;;;;;7.93;4.55;;;3.20;99.90;;;;;;5028245;28;20638;-83
2022/01/31 04:34:43;;;;;;;8.10;5.03;;;2.60;98.90;;;;;;5028350;28;20193;-84
2022/01/31 04:37:12;;;;;;;10.73;4.05;;;2.70;98.80;;;;;;5028786;28;20620;-83
2022/01/31 04:39:39;;;;;;;6.25;3.72;;;2.80;98.40;;;;;;5027619;28;20287;-82
2022/01/31 04:42:07;;;;;;;6.57;4.20;;;2.70;98.40;;;;;;5028743;28;20284;-83
2022/01/31 04:44:35;;;;;;;8.48;5.05;;;2.50;99.90;;;;;;5027729;28;20224;-83
2022/01/31 04:47:02;;;;;;;5.15;4.45;;;2.60;98.60;;;;;;5028395;28;20197;-83
2022/01/31 04:49:29;;;;;;;8.70;3.60;;;2.70;98.90;;;;;;5028947;28;20271;-83
2022/01/31 04:51:56;;;;;;;6.90;3.97;;;2.60;98.80;;;;;;5028410;28;20228;-83
2022/01/31 04:54:24;;;;;;;11.65;4.65;;;2.70;98.80;;;;;;5028218;28;20819;-83
2022/01/31 04:56:51;;;;;;;9.48;4.25;;;2.70;98.70;;;;;;5027902;28;20208;-83
2022/01/31 04:59:19;;;;;;;6.82;4.10;;;2.70;99.90;;;;;;5027616;28;20246;-83
2022/01/31 05:01:47;;;;;;;8.73;4.38;;;2.70;98.70;;;;;;5028732;28;20197;-83
2022/01/31 05:04:15;;;;;;;7.10;4.03;;;2.70;98.70;;;;;;5027704;28;20197;-83
2022/01/31 05:06:43;;;;;;;5.00;4.25;;;2.70;98.70;;;;;;5028682;28;20864;-83
2022/01/31 05:09:11;;;;;;;9.88;3.97;;;2.80;98.80;;;;;;5028437;28;20208;-83
2022/01/31 05:11:41;;;;;;;5.00;4.13;;;2.80;98.60;;;;;;5027395;28;20310;-83
2022/01/31 05:14:09;;;;;;;8.20;4.78;;;2.80;98.90;;;;;;5022253;28;20224;-83
2022/01/31 05:16:36;;;;;;;11.55;4.72;;;2.90;98.70;;;;;;5028355;28;20283;-83
2022/01/31 05:19:03;;;;;;;5.07;4.57;;;3.10;98.70;;;;;;5028638;28;20200;-83
2022/01/31 05:21:30;;;;;;;8.77;4.95;;;3.00;98.60;;;;;;5028163;28;20761;-83
2022/01/31 05:23:57;;;;;;;9.63;5.32;;;2.90;98.60;;;;;;5027691;28;20204;-82
2022/01/31 05:26:24;;;;;;;5.90;4.25;;;2.80;99.90;;;;;;5027399;28;20208;-83
2022/01/31 05:28:53;;;;;;;13.07;4.55;;;2.90;99.20;;;;;;5027138;28;20228;-83
2022/01/31 05:31:20;;;;;;;12.60;5.03;;;2.90;98.70;;;;;;5027886;28;20262;-82
2022/01/31 05:33:47;;;;;;;4.00;3.60;;;2.90;98.80;;;;;;5031719;28;20283;-83
2022/01/31 05:36:13;;;;;;;7.00;4.57;;;2.90;99.90;;;;;;5034918;28;20291;-82
2022/01/31 05:38:41;;;;;;;5.32;3.80;;;2.70;98.80;;;;;;5034061;28;20204;-82
2022/01/31 05:41:11;;;;;;;6.82;4.15;;;2.90;99.90;;;;;;5034904;28;20207;-84
2022/01/31 05:43:38;;;;;;;5.22;4.15;;;2.80;99.00;;;;;;5034654;28;20204;-83
2022/01/31 05:46:06;;;;;;;5.03;3.30;;;2.80;99.90;;;;;;5034412;28;20309;-84
2022/01/31 05:48:33;;;;;;;10.50;4.43;;;2.90;98.80;;;;;;5034850;28;20211;-83
2022/01/31 05:51:01;;;;;;;5.93;3.65;;;2.90;98.70;;;;;;5034756;28;20232;-83
2022/01/31 05:53:30;;;;;;;6.85;3.60;;;3.00;98.50;;;;;;5034724;28;20312;-84
2022/01/31 05:55:57;;;;;;;5.57;3.63;;;3.00;98.50;;;;;;5015916;28;20288;-84
2022/01/31 05:58:24;;;;;;;8.00;4.25;;;3.10;98.30;;;;;;5034032;28;20260;-84
2022/01/31 06:00:51;;;;;;;9.85;3.75;;;3.10;98.20;;;;;;5034910;28;20308;-83
2022/01/31 06:03:20;;;;;;;9.65;4.25;;;3.10;98.10;;;;;;5034479;28;20204;-84
2022/01/31 06:05:47;;;;;;;6.20;3.85;;;3.10;97.90;;;;;;5033656;28;20536;-83
2022/01/31 06:08:13;;;;;;;7.43;3.03;;;3.20;98.20;;;;;;5028748;28;20526;-83
2022/01/31 06:10:44;;;;;;;4.90;3.50;;;3.20;98.10;;;;;;5034428;28;20267;-84
2022/01/31 06:13:11;;;;;;;5.30;3.35;;;3.10;98.10;;;;;;5034330;28;20259;-83
2022/01/31 06:15:57;;;;;;;4.53;3.30;;;3.20;99.90;;;;;;5030552;28;20201;-83
2022/01/31 06:18:26;;;;;;;8.82;3.90;;;3.10;99.60;;;;;;5033752;28;20665;-83
2022/01/31 06:20:53;;;;;;;4.30;3.42;;;3.00;99.90;;;;;;5034678;28;20258;-83
2022/01/31 06:23:20;;;;;;;6.15;3.60;;;3.20;98.30;;;;;;5034551;28;20255;-83
2022/01/31 06:25:48;;;;;;;6.28;4.43;;;3.20;98.50;;;;;;5033880;28;20232;-83
2022/01/31 06:28:15;;;;;;;6.90;3.60;;;5.70;99.90;;;;;;5034265;28;20276;-83
2022/01/31 06:30:41;;;;;;;4.40;3.10;;;3.10;99.10;;;;;;5034105;28;20316;-82
2022/01/31 06:33:08;;;;;;;4.13;3.30;;;3.00;99.90;;;;;;5033102;28;20196;-83
2022/01/31 06:35:39;;;;;;;7.25;3.80;;;3.10;99.90;;;;;;5033922;28;20319;-83
2022/01/31 06:38:06;;;;;;;6.43;3.65;;;2.90;99.90;;;;;;5034114;28;20215;-82
2022/01/31 06:40:33;;;;;;;3.35;2.90;;;3.00;99.90;;;;;;5032488;28;20200;-82
2022/01/31 06:43:00;;;;;;;3.90;3.38;;;2.80;99.90;;;;;;5033595;28;21087;-81
2022/01/31 06:45:27;;;;;;;8.25;3.83;;;2.70;99.90;;;;;;5030792;28;20208;-81
2022/01/31 06:47:54;;;;;;;13.65;3.75;;;2.80;99.90;;;;;;5029651;28;20746;-81
2022/01/31 06:50:21;;;;;;;9.13;4.57;;;2.70;99.90;;;;;;5021305;28;20201;-82
2022/01/31 06:52:53;;;;;;;6.45;3.65;;;2.80;99.90;;;;;;5028265;28;20242;-82
2022/01/31 06:55:21;;;;;;;9.02;3.85;;;2.80;99.90;;;;;;5016835;28;20292;-81
2022/01/31 06:57:49;;;;;;;15.80;4.43;;;2.80;99.90;;;;;;5021421;28;20216;-82
2022/01/31 07:00:18;;;;;;;7.78;4.10;;;3.00;99.90;;;;;;5030792;28;20303;-82
2022/01/31 07:02:45;;;;;;;7.85;4.13;;;2.70;99.90;;;;;;5030083;28;20196;-82
2022/01/31 07:05:14;;;;;;;10.63;4.00;;;2.70;99.90;;;;;;5024320;28;20292;-81
2022/01/31 07:07:41;;;;;;;4.38;3.85;;;2.80;99.90;;;;;;5030202;28;20753;-81
2022/01/31 07:10:11;;;;;;;5.88;3.78;;;2.70;99.90;;;;;;5030674;28;20331;-81
2022/01/31 07:12:40;;;;;;;5.30;3.72;;;2.70;99.90;;;;;;5030278;28;20220;-82
2022/01/31 07:15:09;;;;;;;29.50;5.13;;;2.70;99.90;;;;;;5029782;28;20277;-82
2022/01/31 07:17:36;;;;;;;8.93;4.00;;;2.60;99.90;;;;;;5030506;28;20229;-82
2022/01/31 07:20:04;;;;;;;4.57;3.90;;;2.70;99.90;;;;;;5030158;28;20216;-83
2022/01/31 07:22:36;;;;;;;5.63;4.47;;;2.70;99.90;;;;;;5030527;28;20240;-83
2022/01/31 07:25:05;;;;;;;5.65;4.28;;;2.70;99.90;;;;;;5029000;28;20267;-82
2022/01/31 07:27:34;;;;;;;11.07;4.20;;;2.80;99.90;;;;;;5030612;28;20201;-82
2022/01/31 07:30:01;;;;;;;11.80;4.65;;;2.70;99.90;;;;;;5029575;28;20209;-82
2022/01/31 07:32:29;;;;;;;7.07;3.78;;;2.70;99.90;;;;;;5030570;28;20293;-82
2022/01/31 07:34:56;;;;;;;10.85;5.20;;;2.80;99.90;;;;;;5029073;28;20228;-81
2022/01/31 07:37:24;;;;;;;9.05;4.85;;;2.60;99.90;;;;;;5029658;28;20295;-82
2022/01/31 07:39:51;;;;;;;4.65;3.80;;;2.70;99.90;;;;;;5028074;28;20209;-82
2022/01/31 07:42:20;;;;;;;5.80;4.32;;;2.70;99.90;;;;;;5029173;28;20252;-83
2022/01/31 07:44:48;;;;;;;18.15;4.45;;;2.70;99.90;;;;;;5029551;28;20205;-82
2022/01/31 07:47:15;;;;;;;7.55;3.67;;;2.70;99.90;;;;;;5029483;28;20606;-82
2022/01/31 07:49:42;;;;;;;5.65;3.80;;;3.00;99.90;;;;;;5030089;28;20208;-82
2022/01/31 07:52:09;;;;;;;8.05;4.07;;;2.80;99.90;;;;;;5028640;28;20243;-82
2022/01/31 07:54:36;;;;;;;6.72;4.00;;;2.70;99.90;;;;;;5009112;28;20217;-82
2022/01/31 07:57:04;;;;;;;3.85;3.33;;;2.80;99.90;;;;;;5025680;28;20294;-82
2022/01/31 07:59:31;;;;;;;3.90;3.38;;;2.80;99.90;;;;;;5029995;28;20197;-82
2022/01/31 08:01:59;;;;;;;11.27;3.60;;;2.80;99.90;;;;;;5027027;28;20998;-82
2022/01/31 08:04:26;;;;;;;3.85;2.90;;;2.80;99.90;;;;;;5029362;28;20232;-82
2022/01/31 08:06:53;;;;;;;4.38;2.60;;;2.70;99.90;;;;;;5027361;28;20274;-81
2022/01/31 08:09:20;;;;;;;3.00;2.70;;;2.80;99.90;;;;;;5029610;28;20235;-82
2022/01/31 08:11:47;;;;;;;4.15;3.08;;;2.80;99.90;;;;;;5029188;28;20298;-82
2022/01/31 08:14:17;;;;;;;3.10;2.80;;;2.80;99.90;;;;;;5029072;28;20201;-82
2022/01/31 08:16:44;;;;;;;2.40;2.20;;;2.90;99.90;;;;;;5029036;28;20207;-82
2022/01/31 08:19:12;;;;;;;7.13;2.55;;;2.80;99.90;;;;;;5028484;28;20292;-82
2022/01/31 08:21:39;;;;;;;2.40;2.20;;;2.90;99.90;;;;;;5028990;28;20278;-82
2022/01/31 08:24:07;;;;;;;6.13;2.25;;;2.90;99.90;;;;;;5027991;28;20280;-82
2022/01/31 08:26:34;;;;;;;2.80;2.38;;;2.90;99.90;;;;;;5028806;28;20598;-82
2022/01/31 08:29:05;;;;;;;2.28;2.08;;;2.90;99.90;;;;;;5028998;28;20239;-82
2022/01/31 08:31:34;;;;;;;2.22;1.80;;;2.70;99.90;;;;;;5028355;28;20216;-82
2022/01/31 08:34:07;;;;;;;2.03;1.92;;;2.90;99.90;;;;;;5028821;28;20208;-83
2022/01/31 08:36:36;;;;;;;1.67;1.52;;;3.00;99.90;;;;;;5029243;28;20225;-82
2022/01/31 08:39:09;;;;;;;2.35;2.15;;;2.90;99.90;;;;;;5028812;28;20201;-82
2022/01/31 08:41:37;;;;;;;1.38;1.27;;;3.00;99.90;;;;;;5022626;28;20639;-82
2022/01/31 08:44:05;;;;;;;2.15;1.65;;;3.00;99.90;;;;;;5027659;28;20331;-82
2022/01/31 08:46:32;;;;;;;2.65;2.20;;;3.20;99.90;;;;;;5028709;28;20200;-82
2022/01/31 08:48:59;;;;;;;1.52;1.40;;;3.00;99.90;;;;;;5028683;28;20204;-81
2022/01/31 08:51:26;;;;;;;1.42;1.30;;;3.10;99.90;;;;;;5028332;28;20579;-82
2022/01/31 08:53:55;;;;;;;1.10;1.10;;;3.20;99.90;;;;;;5028400;28;20205;-82
2022/01/31 08:56:22;;;;;;;1.02;1.02;;;3.20;99.90;;;;;;5028084;28;20203;-82
2022/01/31 08:58:49;;;;;;;1.48;1.30;;;3.20;99.90;;;;;;5027979;28;20205;-82
2022/01/31 09:01:18;;;;;;;2.58;1.33;;;3.20;99.90;;;;;;5028337;28;20591;-82
2022/01/31 09:04:01;;;;;;;1.15;1.05;;;3.30;99.90;;;;;;5016787;28;20224;-82
2022/01/31 09:06:29;;;;;;;2.08;1.27;;;3.40;99.90;;;;;;5027212;28;20199;-82
2022/01/31 09:08:58;;;;;;;4.65;1.58;;;3.50;99.90;;;;;;5027830;28;20204;-82
2022/01/31 09:11:26;;;;;;;1.95;1.48;;;3.70;99.90;;;;;;5028143;28;20748;-82
2022/01/31 09:13:53;;;;;;;1.60;1.48;;;3.60;99.90;;;;;;5028272;28;20749;-82
2022/01/31 09:16:20;;;;;;;6.05;1.65;;;3.70;99.90;;;;;;5028196;28;20288;-82
2022/01/31 09:18:47;;;;;;;2.22;1.95;;;3.70;99.90;;;;;;5026922;28;20280;-82
2022/01/31 09:21:14;;;;;;;5.97;2.42;;;3.70;99.90;;;;;;5028642;28;20239;-82
2022/01/31 09:23:41;;;;;;;3.70;1.60;;;3.60;99.90;;;;;;5027540;28;20597;-82
2022/01/31 09:26:09;;;;;;;2.55;2.20;;;3.60;99.90;;;;;;5027325;28;20283;-82
2022/01/31 09:28:37;;;;;;;2.58;1.67;;;3.60;99.90;;;;;;5028757;28;20216;-82
2022/01/31 09:31:05;;;;;;;2.63;2.25;;;3.70;99.90;;;;;;5027935;28;20267;-82
2022/01/31 09:33:32;;;;;;;1.77;1.67;;;4.10;99.90;;;;;;5028669;28;20201;-82
2022/01/31 09:35:59;;;;;;;2.00;1.90;;;4.10;99.90;;;;;;5022126;28;20228;-82
2022/01/31 09:38:26;;;;;;;2.15;1.95;;;4.10;99.90;;;;;;5027313;28;20196;-82
2022/01/31 09:40:53;;;;;;;1.98;1.58;;;4.20;99.90;;;;;;5017642;28;20201;-82
2022/01/31 09:43:51;;;;;;;1.88;1.73;;;4.40;99.90;;;;;;5013402;28;20192;-82
2022/01/31 09:46:43;;;;;;;2.72;1.85;;;4.40;99.90;;;;;;5027219;28;20243;-82
2022/01/31 09:49:06;;;;;;;2.03;1.90;;;4.30;99.90;;;;;;5027929;28;20697;-82
2022/01/31 09:51:33;;;;;;;2.45;1.35;;;4.30;99.90;;;;;;5027516;28;20281;-82
2022/01/31 09:54:03;;;;;;;2.10;1.90;;;4.40;99.90;;;;;;5027567;28;20294;-83
2022/01/31 09:56:33;;;;;;;1.63;1.20;;;4.40;99.90;;;;;;5023087;28;20290;-82
2022/01/31 09:59:03;;;;;;;1.40;1.30;;;4.40;99.90;;;;;;5027556;28;20209;-82
2022/01/31 10:01:32;;;;;;;4.25;1.95;;;4.10;99.90;;;;;;5026877;28;20725;-83
2022/01/31 10:04:01;;;;;;;1.77;1.27;;;5.90;99.90;;;;;;5026930;28;20723;-82
2022/01/31 10:06:30;;;;;;;3.25;2.00;;;4.50;99.90;;;;;;5027063;28;20526;-83
2022/01/31 10:09:04;;;;;;;3.22;1.73;;;4.50;99.90;;;;;;5027190;28;20278;-82
2022/01/31 10:11:39;;;;;;;2.33;2.00;;;4.50;99.90;;;;;;5026817;28;20307;-83
2022/01/31 10:16:59;;;;;;;2.95;1.50;;;4.40;99.90;;;;;;5027395;28;20254;-82
2022/01/31 10:19:26;;;;;;;3.35;1.83;;;4.60;99.90;;;;;;5027633;28;20201;-82
2022/01/31 10:22:02;;;;;;;2.53;2.25;;;4.50;99.90;;;;;;5030744;28;20542;-82
2022/01/31 10:24:30;;;;;;;1.65;1.55;;;4.50;99.60;;;;;;5030429;28;20204;-82
2022/01/31 10:26:58;;;;;;;2.47;1.85;;;4.50;99.60;;;;;;5030755;28;20209;-82
2022/01/31 10:29:26;;;;;;;2.25;1.65;;;4.60;99.90;;;;;;5030330;28;20196;-82
2022/01/31 10:31:59;;;;;;;3.05;1.92;;;4.50;99.30;;;;;;5023460;28;20311;-82
2022/01/31 10:34:27;;;;;;;4.53;1.50;;;4.30;99.90;;;;;;5029840;28;20201;-82
2022/01/31 10:36:54;;;;;;;2.20;1.98;;;4.60;99.90;;;;;;5030728;28;20196;-83
2022/01/31 10:54:04;;;;;;;1.73;1.23;;;5.00;97.60;;;;;;5029852;28;20200;-83
2022/01/31 10:56:38;;;;;;;1.25;1.15;;;5.00;97.30;;;;;;5030000;28;20197;-82
2022/01/31 10:59:08;;;;;;;2.88;1.48;;;5.00;99.90;;;;;;5030489;28;20285;-82
2022/01/31 11:01:38;;;;;;;1.08;1.05;;;4.90;96.50;;;;;;5029124;28;20254;-83
2022/01/31 11:04:10;;;;;;;1.90;1.77;;;4.90;96.80;;;;;;5029694;28;20200;-83
2022/01/31 11:06:39;;;;;;;1.42;1.25;;;5.00;96.80;;;;;;5028720;28;20193;-83
2022/01/31 11:09:09;;;;;;;2.22;1.15;;;5.00;96.60;;;;;;5030594;28;20231;-83
2022/01/31 11:11:38;;;;;;;2.85;1.77;;;5.00;99.90;;;;;;5029532;28;20232;-83
2022/01/31 11:14:06;;;;;;;2.53;1.30;;;4.80;98.30;;;;;;5028925;28;20603;-83
2022/01/31 11:16:34;;;;;;;1.70;1.60;;;4.90;96.60;;;;;;5030481;28;20209;-83
2022/01/31 11:19:07;;;;;;;1.50;1.40;;;4.90;96.60;;;;;;5030236;28;20298;-83
2022/01/31 11:21:36;;;;;;;7.45;2.28;;;4.90;96.50;;;;;;5029858;28;20879;-83
2022/01/31 11:24:05;;;;;;;1.15;1.15;;;5.00;99.90;;;;;;5029150;28;20207;-83
2022/01/31 11:26:39;;;;;;;4.72;1.63;;;5.00;97.00;;;;;;5022709;28;20220;-83
2022/01/31 11:29:10;;;;;;;1.65;1.55;;;5.10;96.80;;;;;;5029847;28;20715;-82
2022/01/31 11:31:38;;;;;;;1.42;0.88;;;5.00;96.60;;;;;;5029463;28;20205;-82
2022/01/31 11:34:08;;;;;;;3.75;1.25;;;7.30;97.80;;;;;;5028505;28;20284;-83
2022/01/31 11:36:36;;;;;;;2.00;1.60;;;4.60;99.30;;;;;;5029108;28;20212;-82
2022/01/31 11:39:07;;;;;;;4.63;2.10;;;4.60;97.30;;;;;;5028545;28;20196;-82
2022/01/31 11:41:34;;;;;;;1.50;1.40;;;4.60;97.60;;;;;;5029860;28;20232;-82
2022/01/31 11:44:09;;;;;;;3.22;1.70;;;4.50;99.90;;;;;;5028350;28;21176;-83
2022/01/31 11:46:39;;;;;;;1.75;1.52;;;4.50;98.10;;;;;;5030180;28;20275;-83
2022/01/31 11:49:12;;;;;;;2.25;1.48;;;4.50;98.20;;;;;;5029824;28;20200;-83
2022/01/31 11:51:51;;;;;;;2.95;1.50;;;4.20;99.90;;;;;;5029472;28;20209;-83
2022/01/31 11:54:24;;;;;;;5.38;1.35;;;4.60;99.90;;;;;;5028844;28;20206;-82
2022/01/31 11:56:55;;;;;;;1.33;1.20;;;4.40;98.40;;;;;;5029415;28;20291;-82
2022/01/31 11:59:23;;;;;;;2.58;1.40;;;4.40;98.70;;;;;;5029439;28;20250;-82
2022/01/31 12:01:51;;;;;;;2.75;1.38;;;4.30;98.80;;;;;;5029388;28;20497;-82
2022/01/31 12:04:24;;;;;;;1.70;1.08;;;4.30;99.90;;;;;;5027286;28;20341;-82
2022/01/31 12:06:51;;;;;;;1.20;1.08;;;4.30;98.90;;;;;;5029527;28;20206;-82
2022/01/31 12:09:21;;;;;;;1.55;1.30;;;4.20;98.60;;;;;;5028806;28;20670;-82
2022/01/31 12:12:03;;;;;;;3.20;1.00;;;4.20;98.70;;;;;;5029185;28;20208;-82
2022/01/31 12:14:43;;;;;;;2.35;1.50;;;4.10;99.90;;;;;;5027909;28;20207;-83
2022/01/31 12:17:38;;;;;;;1.17;1.08;;;4.10;99.40;;;;;;5029408;28;20200;-83
2022/01/31 12:20:15;;;;;;;1.33;1.15;;;4.00;99.40;;;;;;5024438;28;20213;-82
2022/01/31 12:22:47;;;;;;;1.48;1.30;;;4.00;99.90;;;;;;5025954;28;20200;-83
2022/01/31 12:25:28;;;;;;;3.83;1.83;;;3.90;99.90;;;;;;5026791;28;20232;-83
2022/01/31 12:28:02;;;;;;;2.42;1.40;;;4.00;99.60;;;;;;5028710;28;20216;-83
2022/01/31 12:30:34;;;;;;;3.72;1.42;;;4.10;99.50;;;;;;5028960;28;20199;-83
2022/01/31 12:33:01;;;;;;;1.50;1.40;;;3.90;99.70;;;;;;5029624;28;20303;-83
2022/01/31 12:35:35;;;;;;;6.15;1.45;;;4.10;99.90;;;;;;5032115;28;20221;-83
2022/01/31 12:38:03;;;;;;;2.15;1.70;;;3.90;99.90;;;;;;5029012;28;20205;-83
2022/01/31 12:40:33;;;;;;;6.35;1.40;;;3.90;99.90;;;;;;5025139;28;20779;-83
2022/01/31 12:46:20;;;;;;;1.45;1.35;;;3.70;99.90;;;;;;5028139;28;20204;-82
2022/01/31 12:49:11;;;;;;;3.22;1.75;;;3.90;99.90;;;;;;5028457;28;20232;-83
2022/01/31 12:52:00;;;;;;;3.05;2.00;;;3.90;99.90;;;;;;5028739;28;20212;-82
2022/01/31 12:54:28;;;;;;;2.67;1.48;;;3.90;99.90;;;;;;5027040;28;20193;-83
2022/01/31 12:56:55;;;;;;;2.25;1.45;;;3.80;99.90;;;;;;5029023;28;20197;-83
2022/01/31 12:59:23;;;;;;;5.18;1.95;;;3.80;99.90;;;;;;5027915;28;20258;-83
2022/01/31 13:01:51;;;;;;;2.15;1.10;;;3.80;99.90;;;;;;5027401;28;20228;-83
2022/01/31 13:04:21;;;;;;;3.70;1.58;;;3.70;99.90;;;;;;5028333;28;20211;-83
2022/01/31 13:06:49;;;;;;;1.50;1.40;;;3.40;99.90;;;;;;5026830;28;20266;-83
2022/01/31 13:09:23;;;;;;;4.20;3.40;;;3.70;99.90;;;;;;5027946;28;20201;-83
2022/01/31 13:11:52;;;;;;;4.50;3.63;;;3.30;99.90;;;;;;5028798;28;20204;-83
2022/01/31 13:14:23;;;;;;;7.30;6.35;;;3.60;99.90;;;;;;5027868;28;20228;-84
2022/01/31 13:16:59;;;;;;;3.88;2.65;;;3.60;99.90;;;;;;5028586;28;20486;-83
2022/01/31 13:19:28;;;;;;;4.25;3.40;;;3.60;99.90;;;;;;5021545;28;20282;-83
2022/01/31 13:21:57;;;;;;;4.30;3.65;;;3.70;99.90;;;;;;5028249;28;20196;-83
2022/01/31 13:24:36;;;;;;;2.85;2.40;;;3.70;99.90;;;;;;5027428;28;20211;-83
2022/01/31 13:27:04;;;;;;;5.05;3.10;;;3.60;99.90;;;;;;5028670;28;20712;-83